This is the latest recevied weather packets stored in our database for station/object OK1LPD-5. If no packets are shown the sender has not sent any weather packets the latest 1 day(s).
| Time | Temp. | Humidity | Pressure | Rain* | Wind** | Luminosity | Snow |
|---|---|---|---|---|---|---|---|
| 1777970414 | 22.78° C | 75% | 1003.4 hPa | 0.25 mm | 0 m/s | - | - |
| 1777969809 | 22.78° C | 77% | 1003.5 hPa | 0.25 mm | 0.45 m/s, 220° | - | - |
| 1777969212 | 22.22° C | 77% | 1003.6 hPa | 0.25 mm | 0 m/s | - | - |
| 1777968612 | 21.67° C | 78% | 1003.7 hPa | 0.25 mm | 0.45 m/s, 28° | - | - |
| 1777968009 | 21.67° C | 90% | 1004 hPa | 0.25 mm | 0.45 m/s, 45° | - | - |
| 1777967412 | 20.56° C | 99% | 1003.9 hPa | 0 mm | 0.45 m/s, 45° | - | - |
| 1777966812 | 20.56° C | 99% | 1004 hPa | 0 mm | 0 m/s | - | - |
| 1777966209 | 17.78° C | 99% | 1004.3 hPa | 0 mm | 0.89 m/s, 115° | - | - |
| 1777965611 | 17.22° C | 99% | 1004.3 hPa | 0 mm | 0 m/s | - | - |
| 1777965012 | 16.67° C | 99% | 1004.3 hPa | 0 mm | 0 m/s | - | - |
| 1777964409 | 16.67° C | 99% | 1004.3 hPa | 0 mm | 0 m/s | - | - |
| 1777963812 | 16.11° C | 99% | 1004.5 hPa | 0 mm | 0.45 m/s, 80° | - | - |
| 1777963211 | 16.11° C | 99% | 1004.6 hPa | 0 mm | 0 m/s | - | - |
| 1777962608 | 16.11° C | 99% | 1004.7 hPa | 0 mm | 0 m/s | - | - |
| 1777962012 | 16.67° C | 99% | 1004.7 hPa | 0 mm | 0 m/s | - | - |
| 1777961411 | 16.11° C | 99% | 1004.9 hPa | 0 mm | 0 m/s | - | - |
| 1777960808 | 16.11° C | 99% | 1004.9 hPa | 0 mm | 0 m/s | - | - |
| 1777960211 | 15° C | 99% | 1005 hPa | 0 mm | 0 m/s | - | - |
| 1777959611 | 13.33° C | 99% | 1005.3 hPa | 0 mm | 0 m/s | - | - |
| 1777959008 | 13.33° C | 99% | 1005.3 hPa | 0 mm | 0 m/s | - | - |
| 1777958413 | 12.78° C | 99% | 1005.4 hPa | 0 mm | 0 m/s | - | - |
| 1777957812 | 12.78° C | 99% | 1005.2 hPa | 0 mm | 0 m/s | - | - |
| 1777957209 | 12.22° C | 99% | 1005.2 hPa | 0 mm | 0 m/s | - | - |
| 1777956612 | 12.22° C | 99% | 1005.2 hPa | 0 mm | 0 m/s | - | - |
| 1777956009 | 12.22° C | 99% | 1005.2 hPa | 0 mm | 0 m/s | - | - |
* Rain latest hour (hover to see other rain measurements)
** Current wind speed in m/s (hover to see current wind gust speed)